首页
METAR-TAF:

METAR-TAF

机场 :

特里布万国际机场

加德滿都, 尼泊尔

纬度: 27-42N, 经度: 085-22E, 海拔: 1337米

当前天气观测

该预报发布于10分钟前的17:50 UTC
风速3节,风向西南,在西转西南之间变化
温度 22°C
湿度 94%
气压 1010 hPa
能見度: 6000
少量云层高于1500英尺
散云层高于3000英尺
多云层高于10000英尺

METAR: VNKT 231750Z 22003KT 190V250 6000 FEW015 SCT030 BKN100 22/21 Q1010 NOSIG

时间: 23:45 (18:00 UTC)

预报

该预报发布于1小时和0分钟前的17:00 UTC
预报有效从23日的 18点(UTC)到 24日的 18点(UTC)
风速2节,风向多变
能見度: 6000
少量云层高于1500英尺
散云层高于10000英尺
几率 30%
从 23日的 18点(UTC)到 23日的 22点(UTC)
风速8节,风向南转西南
能見度: 4000
少量云层高于2500英尺, 积雨云.
成为
从 24日的 00点(UTC)到 24日的 02点(UTC)
风速2节,风向多变
能見度: 3000
少量云层高于1000英尺
散云层高于3000英尺
多云层高于10000英尺
成为
从 24日的 07点(UTC)到 24日的 08点(UTC)
风速6节,风向西南
能見度: 7000
少量云层高于1500英尺
散云层高于3000英尺
多云层高于10000英尺
几率 40%
从 24日的 07点(UTC)到 24日的 12点(UTC)
风速12节,风向多变
能見度: 4000
少量云层高于2500英尺, 积雨云.
成为
从 24日的 14点(UTC)到 24日的 15点(UTC)
风速2节,风向多变
能見度: 6000
少量云层高于1500英尺
散云层高于10000英尺

TAF: VNKT 231700Z 2318/2418 VRB02KT 6000 FEW015 SCT100 PROB3010 2318/2322 20008KT 4000 -RA/SHRA FEW025CB BECMG 2400/2402 VRB02KT 3000 -RA/BR FEW010 SCT030 BKN100 BECMG 2407/2408 22006KT 7000 FEW015 SCT030 BKN100 PROB40 2407/2412 VRB12KT 4000 -RA/SHRA FEW025CB BECMG 2414/2415 VRB02KT 6000 FEW015 SCT100

超过4000个机场的气象观测和天气预报(METAR&TAF报告)。

可查询的气象台以黄色和红色小点在地图上表示。

将鼠标移到小点上方,可查看气象台名称。

然后点击查看天气观测和预报。

如需切换地图:点击带黑十字的绿色按钮放大地图;点击带横线的绿色按钮缩小地图;或者点击绿色箭头查看邻近地区的地图。


METAR-TAF: